sensor_id;sensor_type;location;lat;lon;timestamp;temperature;humidity
38183;DHT22;23991;52.430;10.586;2022-09-09T00:04:37;16.20;81.70
38183;DHT22;23991;52.430;10.586;2022-09-09T00:07:10;16.20;81.70
38183;DHT22;23991;52.430;10.586;2022-09-09T00:09:53;16.20;81.60
38183;DHT22;23991;52.430;10.586;2022-09-09T00:12:32;16.20;81.50
38183;DHT22;23991;52.430;10.586;2022-09-09T00:20:50;16.10;81.90
38183;DHT22;23991;52.430;10.586;2022-09-09T00:23:25;16.10;82.00
38183;DHT22;23991;52.430;10.586;2022-09-09T00:28:45;16.10;82.00
38183;DHT22;23991;52.430;10.586;2022-09-09T00:31:15;16.10;81.80
38183;DHT22;23991;52.430;10.586;2022-09-09T00:33:43;16.10;81.90
38183;DHT22;23991;52.430;10.586;2022-09-09T00:36:14;16.10;81.70
38183;DHT22;23991;52.430;10.586;2022-09-09T00:38:47;16.10;81.70
38183;DHT22;23991;52.430;10.586;2022-09-09T00:46:49;16.10;81.40
38183;DHT22;23991;52.430;10.586;2022-09-09T00:49:39;16.10;81.50
38183;DHT22;23991;52.430;10.586;2022-09-09T00:57:36;16.00;81.60
38183;DHT22;23991;52.430;10.586;2022-09-09T01:00:21;16.00;81.70
38183;DHT22;23991;52.430;10.586;2022-09-09T01:03:17;16.00;81.80
38183;DHT22;23991;52.430;10.586;2022-09-09T01:05:54;16.00;81.60
38183;DHT22;23991;52.430;10.586;2022-09-09T01:16:58;15.80;81.60
38183;DHT22;23991;52.430;10.586;2022-09-09T01:19:38;15.80;81.60
38183;DHT22;23991;52.430;10.586;2022-09-09T01:27:30;15.80;81.90
38183;DHT22;23991;52.430;10.586;2022-09-09T01:29:57;15.80;82.10
38183;DHT22;23991;52.430;10.586;2022-09-09T01:32:38;15.80;82.20
38183;DHT22;23991;52.430;10.586;2022-09-09T01:37:46;15.80;82.30
38183;DHT22;23991;52.430;10.586;2022-09-09T01:40:12;15.80;82.40
38183;DHT22;23991;52.430;10.586;2022-09-09T01:42:38;15.80;82.40
38183;DHT22;23991;52.430;10.586;2022-09-09T01:45:04;15.80;82.30
38183;DHT22;23991;52.430;10.586;2022-09-09T01:47:30;15.80;82.40
38183;DHT22;23991;52.430;10.586;2022-09-09T01:49:55;15.80;82.30
38183;DHT22;23991;52.430;10.586;2022-09-09T01:52:21;15.80;82.20
38183;DHT22;23991;52.430;10.586;2022-09-09T01:54:47;15.80;82.30
38183;DHT22;23991;52.430;10.586;2022-09-09T01:57:21;15.80;82.40
38183;DHT22;23991;52.430;10.586;2022-09-09T02:05:45;15.70;82.30
38183;DHT22;23991;52.430;10.586;2022-09-09T02:08:22;15.70;82.50
38183;DHT22;23991;52.430;10.586;2022-09-09T02:11:09;15.70;82.50
38183;DHT22;23991;52.430;10.586;2022-09-09T02:13:38;15.70;82.40
38183;DHT22;23991;52.430;10.586;2022-09-09T02:16:33;15.70;82.20
38183;DHT22;23991;52.430;10.586;2022-09-09T02:19:19;15.70;82.30
38183;DHT22;23991;52.430;10.586;2022-09-09T02:21:52;15.60;82.40
38183;DHT22;23991;52.430;10.586;2022-09-09T02:24:19;15.60;82.30
38183;DHT22;23991;52.430;10.586;2022-09-09T02:26:47;15.60;82.30
38183;DHT22;23991;52.430;10.586;2022-09-09T02:29:18;15.60;82.30
38183;DHT22;23991;52.430;10.586;2022-09-09T02:31:44;15.60;82.40
38183;DHT22;23991;52.430;10.586;2022-09-09T02:34:11;15.60;82.30
38183;DHT22;23991;52.430;10.586;2022-09-09T02:36:40;15.60;82.20
38183;DHT22;23991;52.430;10.586;2022-09-09T02:39:08;15.50;82.30
38183;DHT22;23991;52.430;10.586;2022-09-09T02:41:38;15.50;82.40
38183;DHT22;23991;52.430;10.586;2022-09-09T02:44:12;15.50;82.50
38183;DHT22;23991;52.430;10.586;2022-09-09T02:52:06;15.40;82.80
38183;DHT22;23991;52.430;10.586;2022-09-09T02:54:34;15.40;82.80
38183;DHT22;23991;52.430;10.586;2022-09-09T02:57:17;15.40;82.90
38183;DHT22;23991;52.430;10.586;2022-09-09T02:59:45;15.30;82.90
38183;DHT22;23991;52.430;10.586;2022-09-09T03:02:12;15.30;83.10
38183;DHT22;23991;52.430;10.586;2022-09-09T03:04:38;15.30;82.90
38183;DHT22;23991;52.430;10.586;2022-09-09T03:07:04;15.30;83.00
38183;DHT22;23991;52.430;10.586;2022-09-09T03:09:30;15.30;83.00
38183;DHT22;23991;52.430;10.586;2022-09-09T03:11:58;15.30;83.00
38183;DHT22;23991;52.430;10.586;2022-09-09T03:14:23;15.30;82.90
38183;DHT22;23991;52.430;10.586;2022-09-09T03:16:53;15.30;83.00
38183;DHT22;23991;52.430;10.586;2022-09-09T03:19:19;15.30;83.10
38183;DHT22;23991;52.430;10.586;2022-09-09T03:21:47;15.30;83.20
38183;DHT22;23991;52.430;10.586;2022-09-09T03:24:13;15.30;83.00
38183;DHT22;23991;52.430;10.586;2022-09-09T03:26:40;15.30;83.00
38183;DHT22;23991;52.430;10.586;2022-09-09T03:29:06;15.30;83.00
38183;DHT22;23991;52.430;10.586;2022-09-09T03:31:33;15.30;83.00
38183;DHT22;23991;52.430;10.586;2022-09-09T03:33:59;15.30;83.00
38183;DHT22;23991;52.430;10.586;2022-09-09T03:36:26;15.30;83.00
38183;DHT22;23991;52.430;10.586;2022-09-09T03:38:52;15.30;83.20
38183;DHT22;23991;52.430;10.586;2022-09-09T03:41:19;15.30;83.00
38183;DHT22;23991;52.430;10.586;2022-09-09T03:43:49;15.30;82.80
38183;DHT22;23991;52.430;10.586;2022-09-09T03:46:15;15.30;82.80
38183;DHT22;23991;52.430;10.586;2022-09-09T03:48:41;15.30;82.80
38183;DHT22;23991;52.430;10.586;2022-09-09T03:51:06;15.30;82.80
38183;DHT22;23991;52.430;10.586;2022-09-09T03:53:32;15.30;82.90
38183;DHT22;23991;52.430;10.586;2022-09-09T03:55:58;15.30;83.00
38183;DHT22;23991;52.430;10.586;2022-09-09T03:58:25;15.30;82.80
38183;DHT22;23991;52.430;10.586;2022-09-09T04:00:55;15.30;82.90
38183;DHT22;23991;52.430;10.586;2022-09-09T04:03:22;15.30;83.00
38183;DHT22;23991;52.430;10.586;2022-09-09T04:05:50;15.30;83.00
38183;DHT22;23991;52.430;10.586;2022-09-09T04:08:16;15.30;83.10
38183;DHT22;23991;52.430;10.586;2022-09-09T04:10:42;15.30;83.20
38183;DHT22;23991;52.430;10.586;2022-09-09T04:13:09;15.30;83.10
38183;DHT22;23991;52.430;10.586;2022-09-09T04:15:35;15.30;83.10
38183;DHT22;23991;52.430;10.586;2022-09-09T04:18:00;15.30;83.20
38183;DHT22;23991;52.430;10.586;2022-09-09T04:20:26;15.30;83.30
38183;DHT22;23991;52.430;10.586;2022-09-09T04:22:52;15.30;83.30
38183;DHT22;23991;52.430;10.586;2022-09-09T04:25:17;15.30;83.30
38183;DHT22;23991;52.430;10.586;2022-09-09T04:27:43;15.30;83.40
38183;DHT22;23991;52.430;10.586;2022-09-09T04:30:09;15.30;83.50
38183;DHT22;23991;52.430;10.586;2022-09-09T04:32:35;15.30;83.70
38183;DHT22;23991;52.430;10.586;2022-09-09T04:35:02;15.30;83.70
38183;DHT22;23991;52.430;10.586;2022-09-09T04:37:28;15.30;83.80
38183;DHT22;23991;52.430;10.586;2022-09-09T04:39:53;15.30;83.80
38183;DHT22;23991;52.430;10.586;2022-09-09T04:42:19;15.30;83.80
38183;DHT22;23991;52.430;10.586;2022-09-09T04:44:45;15.30;83.80
38183;DHT22;23991;52.430;10.586;2022-09-09T04:47:11;15.30;83.80
38183;DHT22;23991;52.430;10.586;2022-09-09T04:49:37;15.30;83.90
38183;DHT22;23991;52.430;10.586;2022-09-09T04:52:03;15.30;84.00
38183;DHT22;23991;52.430;10.586;2022-09-09T04:54:29;15.30;84.00
38183;DHT22;23991;52.430;10.586;2022-09-09T04:56:55;15.30;84.00
38183;DHT22;23991;52.430;10.586;2022-09-09T04:59:21;15.30;84.00
38183;DHT22;23991;52.430;10.586;2022-09-09T05:01:47;15.40;84.00
38183;DHT22;23991;52.430;10.586;2022-09-09T05:04:13;15.40;83.90
38183;DHT22;23991;52.430;10.586;2022-09-09T05:06:40;15.40;83.80
38183;DHT22;23991;52.430;10.586;2022-09-09T05:09:06;15.40;83.80
38183;DHT22;23991;52.430;10.586;2022-09-09T05:11:32;15.40;83.80
38183;DHT22;23991;52.430;10.586;2022-09-09T05:14:01;15.50;83.70
38183;DHT22;23991;52.430;10.586;2022-09-09T05:16:26;15.60;83.70
38183;DHT22;23991;52.430;10.586;2022-09-09T05:18:52;15.70;83.70
38183;DHT22;23991;52.430;10.586;2022-09-09T05:21:19;15.80;83.60
38183;DHT22;23991;52.430;10.586;2022-09-09T05:23:45;15.80;83.50
38183;DHT22;23991;52.430;10.586;2022-09-09T05:26:16;15.90;83.30
38183;DHT22;23991;52.430;10.586;2022-09-09T05:28:42;16.00;83.10
38183;DHT22;23991;52.430;10.586;2022-09-09T05:31:09;16.10;83.10
38183;DHT22;23991;52.430;10.586;2022-09-09T05:33:36;16.20;82.80
38183;DHT22;23991;52.430;10.586;2022-09-09T05:36:10;16.20;82.50
38183;DHT22;23991;52.430;10.586;2022-09-09T05:38:38;16.30;82.30
38183;DHT22;23991;52.430;10.586;2022-09-09T05:41:05;16.40;82.00
38183;DHT22;23991;52.430;10.586;2022-09-09T05:43:30;16.40;81.80
38183;DHT22;23991;52.430;10.586;2022-09-09T05:46:03;16.50;81.70
38183;DHT22;23991;52.430;10.586;2022-09-09T05:48:31;16.60;81.40
38183;DHT22;23991;52.430;10.586;2022-09-09T05:50:58;16.70;81.40
38183;DHT22;23991;52.430;10.586;2022-09-09T05:53:24;16.80;81.00
38183;DHT22;23991;52.430;10.586;2022-09-09T05:55:49;16.90;80.80
38183;DHT22;23991;52.430;10.586;2022-09-09T05:58:15;17.00;80.50
38183;DHT22;23991;52.430;10.586;2022-09-09T06:00:43;17.10;80.20
38183;DHT22;23991;52.430;10.586;2022-09-09T06:03:12;17.20;79.90
38183;DHT22;23991;52.430;10.586;2022-09-09T06:05:38;17.30;79.70
38183;DHT22;23991;52.430;10.586;2022-09-09T06:08:03;17.40;79.50
38183;DHT22;23991;52.430;10.586;2022-09-09T06:10:29;17.40;79.20
38183;DHT22;23991;52.430;10.586;2022-09-09T06:12:54;17.50;79.30
38183;DHT22;23991;52.430;10.586;2022-09-09T06:15:20;17.50;79.50
38183;DHT22;23991;52.430;10.586;2022-09-09T06:17:46;17.70;79.00
38183;DHT22;23991;52.430;10.586;2022-09-09T06:20:11;17.70;78.90
38183;DHT22;23991;52.430;10.586;2022-09-09T06:22:39;17.70;78.90
38183;DHT22;23991;52.430;10.586;2022-09-09T06:25:07;17.80;78.50
38183;DHT22;23991;52.430;10.586;2022-09-09T06:27:33;18.00;78.20
38183;DHT22;23991;52.430;10.586;2022-09-09T06:29:58;18.10;77.80
38183;DHT22;23991;52.430;10.586;2022-09-09T06:32:24;18.20;77.20
38183;DHT22;23991;52.430;10.586;2022-09-09T06:34:50;18.30;77.00
38183;DHT22;23991;52.430;10.586;2022-09-09T06:37:15;18.30;76.80
38183;DHT22;23991;52.430;10.586;2022-09-09T06:39:41;18.50;76.50
38183;DHT22;23991;52.430;10.586;2022-09-09T06:42:06;18.60;76.50
38183;DHT22;23991;52.430;10.586;2022-09-09T06:44:34;18.70;76.10
38183;DHT22;23991;52.430;10.586;2022-09-09T06:46:59;18.80;76.10
38183;DHT22;23991;52.430;10.586;2022-09-09T06:49:25;18.80;75.80
38183;DHT22;23991;52.430;10.586;2022-09-09T06:51:51;19.00;75.30
38183;DHT22;23991;52.430;10.586;2022-09-09T06:54:17;19.30;75.70
38183;DHT22;23991;52.430;10.586;2022-09-09T06:56:43;19.60;75.10
38183;DHT22;23991;52.430;10.586;2022-09-09T06:59:11;19.90;74.10
38183;DHT22;23991;52.430;10.586;2022-09-09T07:01:42;20.30;73.00
38183;DHT22;23991;52.430;10.586;2022-09-09T07:04:08;20.70;70.80
38183;DHT22;23991;52.430;10.586;2022-09-09T07:06:38;21.00;68.70
38183;DHT22;23991;52.430;10.586;2022-09-09T07:09:06;21.50;68.40
38183;DHT22;23991;52.430;10.586;2022-09-09T07:11:42;21.70;67.50
38183;DHT22;23991;52.430;10.586;2022-09-09T07:14:08;22.00;67.20
38183;DHT22;23991;52.430;10.586;2022-09-09T07:16:34;22.40;65.60
38183;DHT22;23991;52.430;10.586;2022-09-09T07:19:03;22.80;64.40
38183;DHT22;23991;52.430;10.586;2022-09-09T07:21:30;23.00;64.00
38183;DHT22;23991;52.430;10.586;2022-09-09T07:23:56;23.00;63.40
38183;DHT22;23991;52.430;10.586;2022-09-09T07:26:24;23.30;63.70
38183;DHT22;23991;52.430;10.586;2022-09-09T07:28:50;23.40;63.40
38183;DHT22;23991;52.430;10.586;2022-09-09T07:31:22;23.70;61.20
38183;DHT22;23991;52.430;10.586;2022-09-09T07:33:48;24.00;62.10
38183;DHT22;23991;52.430;10.586;2022-09-09T07:38:44;24.20;60.10
38183;DHT22;23991;52.430;10.586;2022-09-09T07:41:13;24.40;58.00
38183;DHT22;23991;52.430;10.586;2022-09-09T07:43:44;24.80;58.10
38183;DHT22;23991;52.430;10.586;2022-09-09T07:46:11;25.00;55.80
38183;DHT22;23991;52.430;10.586;2022-09-09T07:48:38;25.00;55.70
38183;DHT22;23991;52.430;10.586;2022-09-09T07:51:10;24.90;56.40
38183;DHT22;23991;52.430;10.586;2022-09-09T07:53:37;25.00;56.20
38183;DHT22;23991;52.430;10.586;2022-09-09T07:56:09;24.90;55.40
38183;DHT22;23991;52.430;10.586;2022-09-09T07:58:39;24.70;55.50
38183;DHT22;23991;52.430;10.586;2022-09-09T08:03:34;24.60;57.00
38183;DHT22;23991;52.430;10.586;2022-09-09T08:06:01;24.60;57.10
38183;DHT22;23991;52.430;10.586;2022-09-09T08:08:27;25.00;55.80
38183;DHT22;23991;52.430;10.586;2022-09-09T08:10:53;25.50;54.70
38183;DHT22;23991;52.430;10.586;2022-09-09T08:13:18;26.00;53.70
38183;DHT22;23991;52.430;10.586;2022-09-09T08:15:44;26.40;52.20
38183;DHT22;23991;52.430;10.586;2022-09-09T08:18:10;26.40;50.70
38183;DHT22;23991;52.430;10.586;2022-09-09T08:20:36;26.80;50.00
38183;DHT22;23991;52.430;10.586;2022-09-09T08:23:03;27.20;48.80
38183;DHT22;23991;52.430;10.586;2022-09-09T08:25:30;27.30;48.60
38183;DHT22;23991;52.430;10.586;2022-09-09T08:27:55;27.60;46.90
38183;DHT22;23991;52.430;10.586;2022-09-09T08:30:21;28.10;46.70
38183;DHT22;23991;52.430;10.586;2022-09-09T08:32:46;28.00;46.00
38183;DHT22;23991;52.430;10.586;2022-09-09T08:35:13;28.20;45.60
38183;DHT22;23991;52.430;10.586;2022-09-09T08:37:39;28.80;44.20
38183;DHT22;23991;52.430;10.586;2022-09-09T08:40:05;28.80;43.80
38183;DHT22;23991;52.430;10.586;2022-09-09T08:42:50;28.90;43.70
38183;DHT22;23991;52.430;10.586;2022-09-09T08:45:31;28.80;43.90
38183;DHT22;23991;52.430;10.586;2022-09-09T08:48:03;28.70;44.00
38183;DHT22;23991;52.430;10.586;2022-09-09T08:50:38;28.80;43.20
38183;DHT22;23991;52.430;10.586;2022-09-09T08:53:35;28.80;43.50
38183;DHT22;23991;52.430;10.586;2022-09-09T08:56:08;28.80;43.50
38183;DHT22;23991;52.430;10.586;2022-09-09T08:58:48;28.30;44.90
38183;DHT22;23991;52.430;10.586;2022-09-09T09:12:27;29.90;40.80
38183;DHT22;23991;52.430;10.586;2022-09-09T09:14:54;30.00;40.70
38183;DHT22;23991;52.430;10.586;2022-09-09T09:17:26;30.00;41.10
38183;DHT22;23991;52.430;10.586;2022-09-09T09:19:52;29.90;40.80
38183;DHT22;23991;52.430;10.586;2022-09-09T09:22:26;30.20;39.80
38183;DHT22;23991;52.430;10.586;2022-09-09T09:25:17;30.90;38.60
38183;DHT22;23991;52.430;10.586;2022-09-09T09:30:39;31.60;37.10
38183;DHT22;23991;52.430;10.586;2022-09-09T09:33:25;32.20;36.70
38183;DHT22;23991;52.430;10.586;2022-09-09T09:35:55;32.50;35.20
38183;DHT22;23991;52.430;10.586;2022-09-09T09:38:23;32.70;35.10
38183;DHT22;23991;52.430;10.586;2022-09-09T09:40:54;32.50;35.60
38183;DHT22;23991;52.430;10.586;2022-09-09T09:43:34;32.40;35.40
38183;DHT22;23991;52.430;10.586;2022-09-09T09:46:03;32.30;35.70
38183;DHT22;23991;52.430;10.586;2022-09-09T09:48:28;32.50;35.20
38183;DHT22;23991;52.430;10.586;2022-09-09T09:51:01;32.90;34.30
38183;DHT22;23991;52.430;10.586;2022-09-09T09:53:32;33.50;34.10
38183;DHT22;23991;52.430;10.586;2022-09-09T09:56:07;34.00;32.90
38183;DHT22;23991;52.430;10.586;2022-09-09T10:01:27;33.90;33.40
38183;DHT22;23991;52.430;10.586;2022-09-09T10:03:58;33.80;33.70
38183;DHT22;23991;52.430;10.586;2022-09-09T10:06:33;33.40;33.20
38183;DHT22;23991;52.430;10.586;2022-09-09T10:08:59;33.30;33.60
38183;DHT22;23991;52.430;10.586;2022-09-09T10:11:35;33.00;33.80
38183;DHT22;23991;52.430;10.586;2022-09-09T10:14:26;32.70;34.80
38183;DHT22;23991;52.430;10.586;2022-09-09T10:17:13;33.10;34.00
38183;DHT22;23991;52.430;10.586;2022-09-09T10:19:51;33.20;33.70
38183;DHT22;23991;52.430;10.586;2022-09-09T10:22:56;33.80;32.60
38183;DHT22;23991;52.430;10.586;2022-09-09T10:34:11;34.90;30.70
38183;DHT22;23991;52.430;10.586;2022-09-09T10:36:46;35.90;29.30
38183;DHT22;23991;52.430;10.586;2022-09-09T10:39:37;36.00;29.10
38183;DHT22;23991;52.430;10.586;2022-09-09T10:42:12;36.20;29.10
38183;DHT22;23991;52.430;10.586;2022-09-09T10:45:10;36.40;28.90
38183;DHT22;23991;52.430;10.586;2022-09-09T10:48:05;36.20;28.40
38183;DHT22;23991;52.430;10.586;2022-09-09T10:50:52;36.30;28.70
38183;DHT22;23991;52.430;10.586;2022-09-09T10:53:51;36.00;29.30
38183;DHT22;23991;52.430;10.586;2022-09-09T10:56:20;35.60;29.50
38183;DHT22;23991;52.430;10.586;2022-09-09T10:59:02;35.40;29.90
38183;DHT22;23991;52.430;10.586;2022-09-09T11:01:52;35.60;29.60
38183;DHT22;23991;52.430;10.586;2022-09-09T11:07:25;35.40;30.30
38183;DHT22;23991;52.430;10.586;2022-09-09T11:09:59;35.50;30.30
38183;DHT22;23991;52.430;10.586;2022-09-09T11:12:27;35.30;30.00
38183;DHT22;23991;52.430;10.586;2022-09-09T11:15:03;35.00;30.90
38183;DHT22;23991;52.430;10.586;2022-09-09T11:18:03;35.60;30.30
38183;DHT22;23991;52.430;10.586;2022-09-09T11:23:24;34.90;30.80
38183;DHT22;23991;52.430;10.586;2022-09-09T11:26:13;35.00;29.80
38183;DHT22;23991;52.430;10.586;2022-09-09T11:31:58;34.00;31.90
38183;DHT22;23991;52.430;10.586;2022-09-09T11:35:10;33.50;32.40
38183;DHT22;23991;52.430;10.586;2022-09-09T11:38:02;33.10;34.10
38183;DHT22;23991;52.430;10.586;2022-09-09T11:40:37;33.00;33.40
38183;DHT22;23991;52.430;10.586;2022-09-09T11:43:24;33.10;33.00
38183;DHT22;23991;52.430;10.586;2022-09-09T11:46:01;33.20;32.40
38183;DHT22;23991;52.430;10.586;2022-09-09T11:49:01;33.20;31.90
38183;DHT22;23991;52.430;10.586;2022-09-09T11:51:40;33.00;32.30
38183;DHT22;23991;52.430;10.586;2022-09-09T11:54:29;32.80;32.60
38183;DHT22;23991;52.430;10.586;2022-09-09T11:56:58;32.70;33.20
38183;DHT22;23991;52.430;10.586;2022-09-09T11:59:50;32.50;33.60
38183;DHT22;23991;52.430;10.586;2022-09-09T12:02:28;32.00;34.80
38183;DHT22;23991;52.430;10.586;2022-09-09T12:05:14;31.50;37.30
38183;DHT22;23991;52.430;10.586;2022-09-09T12:07:57;31.00;39.20
38183;DHT22;23991;52.430;10.586;2022-09-09T12:10:28;30.50;38.60
38183;DHT22;23991;52.430;10.586;2022-09-09T12:13:13;30.20;39.50
38183;DHT22;23991;52.430;10.586;2022-09-09T12:15:51;30.50;38.60
38183;DHT22;23991;52.430;10.586;2022-09-09T12:18:26;30.20;38.20
38183;DHT22;23991;52.430;10.586;2022-09-09T12:21:32;30.50;39.00
38183;DHT22;23991;52.430;10.586;2022-09-09T12:24:10;31.20;37.70
38183;DHT22;23991;52.430;10.586;2022-09-09T12:29:20;31.80;37.00
38183;DHT22;23991;52.430;10.586;2022-09-09T12:32:02;32.20;35.70
38183;DHT22;23991;52.430;10.586;2022-09-09T12:34:43;32.10;35.60
38183;DHT22;23991;52.430;10.586;2022-09-09T12:39:59;31.80;36.30
38183;DHT22;23991;52.430;10.586;2022-09-09T12:42:29;31.90;36.80
38183;DHT22;23991;52.430;10.586;2022-09-09T12:48:14;31.00;36.70
38183;DHT22;23991;52.430;10.586;2022-09-09T12:51:21;30.90;36.10
38183;DHT22;23991;52.430;10.586;2022-09-09T12:53:51;30.70;36.30
38183;DHT22;23991;52.430;10.586;2022-09-09T12:56:22;30.50;35.90
38183;DHT22;23991;52.430;10.586;2022-09-09T12:58:50;30.40;36.30
38183;DHT22;23991;52.430;10.586;2022-09-09T13:01:28;30.20;36.50
38183;DHT22;23991;52.430;10.586;2022-09-09T13:03:55;29.80;36.40
38183;DHT22;23991;52.430;10.586;2022-09-09T13:06:28;29.50;36.80
38183;DHT22;23991;52.430;10.586;2022-09-09T13:08:58;29.20;37.50
38183;DHT22;23991;52.430;10.586;2022-09-09T13:11:38;29.20;37.80
38183;DHT22;23991;52.430;10.586;2022-09-09T13:14:05;29.00;38.70
38183;DHT22;23991;52.430;10.586;2022-09-09T13:16:35;28.90;38.50
38183;DHT22;23991;52.430;10.586;2022-09-09T13:19:21;28.60;39.10
38183;DHT22;23991;52.430;10.586;2022-09-09T13:21:47;28.60;39.80
38183;DHT22;23991;52.430;10.586;2022-09-09T13:27:02;28.20;40.20
38183;DHT22;23991;52.430;10.586;2022-09-09T13:29:29;27.90;40.10
38183;DHT22;23991;52.430;10.586;2022-09-09T13:32:06;27.70;40.60
38183;DHT22;23991;52.430;10.586;2022-09-09T13:34:37;27.80;40.40
38183;DHT22;23991;52.430;10.586;2022-09-09T13:37:05;27.90;41.40
38183;DHT22;23991;52.430;10.586;2022-09-09T13:39:35;28.00;41.50
38183;DHT22;23991;52.430;10.586;2022-09-09T13:42:02;28.00;41.70
38183;DHT22;23991;52.430;10.586;2022-09-09T13:44:38;27.80;41.60
38183;DHT22;23991;52.430;10.586;2022-09-09T13:49:32;28.20;41.70
38183;DHT22;23991;52.430;10.586;2022-09-09T13:52:13;28.00;41.90
38183;DHT22;23991;52.430;10.586;2022-09-09T13:54:40;27.80;42.00
38183;DHT22;23991;52.430;10.586;2022-09-09T13:57:17;28.50;40.60
38183;DHT22;23991;52.430;10.586;2022-09-09T13:59:47;28.40;41.20
38183;DHT22;23991;52.430;10.586;2022-09-09T14:02:14;28.60;41.00
38183;DHT22;23991;52.430;10.586;2022-09-09T14:04:39;28.70;40.30
38183;DHT22;23991;52.430;10.586;2022-09-09T14:07:13;28.80;41.00
38183;DHT22;23991;52.430;10.586;2022-09-09T14:09:39;29.00;40.40
38183;DHT22;23991;52.430;10.586;2022-09-09T14:12:12;28.70;41.20
38183;DHT22;23991;52.430;10.586;2022-09-09T14:14:39;28.60;42.00
38183;DHT22;23991;52.430;10.586;2022-09-09T14:17:05;28.60;41.80
38183;DHT22;23991;52.430;10.586;2022-09-09T14:19:30;28.30;41.70
38183;DHT22;23991;52.430;10.586;2022-09-09T14:21:57;28.10;42.10
38183;DHT22;23991;52.430;10.586;2022-09-09T14:24:23;28.00;42.90
38183;DHT22;23991;52.430;10.586;2022-09-09T14:26:49;27.90;43.30
38183;DHT22;23991;52.430;10.586;2022-09-09T14:29:15;27.70;43.80
38183;DHT22;23991;52.430;10.586;2022-09-09T14:31:40;27.60;43.80
38183;DHT22;23991;52.430;10.586;2022-09-09T14:34:06;27.50;44.30
38183;DHT22;23991;52.430;10.586;2022-09-09T14:36:32;27.70;43.00
38183;DHT22;23991;52.430;10.586;2022-09-09T14:38:57;28.20;41.30
38183;DHT22;23991;52.430;10.586;2022-09-09T14:41:24;28.40;40.40
38183;DHT22;23991;52.430;10.586;2022-09-09T14:43:50;28.80;40.00
38183;DHT22;23991;52.430;10.586;2022-09-09T14:46:18;29.00;40.00
38183;DHT22;23991;52.430;10.586;2022-09-09T14:48:44;29.30;39.20
38183;DHT22;23991;52.430;10.586;2022-09-09T14:51:24;29.40;38.80
38183;DHT22;23991;52.430;10.586;2022-09-09T14:53:55;29.10;39.60
38183;DHT22;23991;52.430;10.586;2022-09-09T14:56:31;28.80;40.60
38183;DHT22;23991;52.430;10.586;2022-09-09T14:58:58;28.70;40.10
38183;DHT22;23991;52.430;10.586;2022-09-09T15:01:26;29.00;39.50
38183;DHT22;23991;52.430;10.586;2022-09-09T15:04:03;29.20;39.00
38183;DHT22;23991;52.430;10.586;2022-09-09T15:06:31;29.00;39.10
38183;DHT22;23991;52.430;10.586;2022-09-09T15:08:59;28.70;38.30
38183;DHT22;23991;52.430;10.586;2022-09-09T15:11:27;28.50;39.00
38183;DHT22;23991;52.430;10.586;2022-09-09T15:13:53;28.70;39.00
38183;DHT22;23991;52.430;10.586;2022-09-09T15:16:21;28.70;38.10
38183;DHT22;23991;52.430;10.586;2022-09-09T15:18:52;28.40;38.20
38183;DHT22;23991;52.430;10.586;2022-09-09T15:21:21;28.40;38.30
38183;DHT22;23991;52.430;10.586;2022-09-09T15:23:47;28.70;37.90
38183;DHT22;23991;52.430;10.586;2022-09-09T15:26:13;29.00;37.70
38183;DHT22;23991;52.430;10.586;2022-09-09T15:28:40;28.60;38.30
38183;DHT22;23991;52.430;10.586;2022-09-09T15:31:11;28.60;38.50
38183;DHT22;23991;52.430;10.586;2022-09-09T15:33:39;28.60;38.40
38183;DHT22;23991;52.430;10.586;2022-09-09T15:38:43;28.30;39.10
38183;DHT22;23991;52.430;10.586;2022-09-09T15:41:09;28.60;38.80
38183;DHT22;23991;52.430;10.586;2022-09-09T15:43:35;28.40;39.30
38183;DHT22;23991;52.430;10.586;2022-09-09T15:48:46;28.20;39.50
38183;DHT22;23991;52.430;10.586;2022-09-09T15:51:12;28.20;39.70
38183;DHT22;23991;52.430;10.586;2022-09-09T15:53:39;28.20;40.00
38183;DHT22;23991;52.430;10.586;2022-09-09T15:56:08;28.30;39.70
38183;DHT22;23991;52.430;10.586;2022-09-09T15:58:34;28.40;39.50
38183;DHT22;23991;52.430;10.586;2022-09-09T16:01:10;28.50;38.50
38183;DHT22;23991;52.430;10.586;2022-09-09T16:03:42;28.20;39.80
38183;DHT22;23991;52.430;10.586;2022-09-09T16:06:09;28.00;40.60
38183;DHT22;23991;52.430;10.586;2022-09-09T16:08:35;27.90;40.80
38183;DHT22;23991;52.430;10.586;2022-09-09T16:13:38;27.90;41.50
38183;DHT22;23991;52.430;10.586;2022-09-09T16:16:05;27.50;42.70
38183;DHT22;23991;52.430;10.586;2022-09-09T16:18:51;27.60;43.00
38183;DHT22;23991;52.430;10.586;2022-09-09T16:23:50;27.40;43.30
38183;DHT22;23991;52.430;10.586;2022-09-09T16:26:17;27.30;44.00
38183;DHT22;23991;52.430;10.586;2022-09-09T16:28:43;27.30;43.80
38183;DHT22;23991;52.430;10.586;2022-09-09T16:31:20;27.20;43.90
38183;DHT22;23991;52.430;10.586;2022-09-09T16:33:46;27.10;45.10
38183;DHT22;23991;52.430;10.586;2022-09-09T16:36:15;27.10;44.60
38183;DHT22;23991;52.430;10.586;2022-09-09T16:38:41;27.10;44.30
38183;DHT22;23991;52.430;10.586;2022-09-09T16:41:09;26.90;44.80
38183;DHT22;23991;52.430;10.586;2022-09-09T16:43:36;27.00;44.90
38183;DHT22;23991;52.430;10.586;2022-09-09T16:46:16;27.20;44.00
38183;DHT22;23991;52.430;10.586;2022-09-09T16:48:44;27.10;44.30
38183;DHT22;23991;52.430;10.586;2022-09-09T16:51:18;27.10;44.40
38183;DHT22;23991;52.430;10.586;2022-09-09T16:53:43;27.00;44.90
38183;DHT22;23991;52.430;10.586;2022-09-09T16:56:18;26.70;45.30
38183;DHT22;23991;52.430;10.586;2022-09-09T16:58:49;26.70;45.60
38183;DHT22;23991;52.430;10.586;2022-09-09T17:01:15;26.50;45.90
38183;DHT22;23991;52.430;10.586;2022-09-09T17:03:41;26.50;46.00
38183;DHT22;23991;52.430;10.586;2022-09-09T17:06:11;26.20;46.70
38183;DHT22;23991;52.430;10.586;2022-09-09T17:08:38;26.20;47.00
38183;DHT22;23991;52.430;10.586;2022-09-09T17:11:11;26.20;47.00
38183;DHT22;23991;52.430;10.586;2022-09-09T17:13:39;26.20;47.00
38183;DHT22;23991;52.430;10.586;2022-09-09T17:16:05;26.10;47.30
38183;DHT22;23991;52.430;10.586;2022-09-09T17:18:30;26.00;47.50
38183;DHT22;23991;52.430;10.586;2022-09-09T17:21:02;25.80;48.00
38183;DHT22;23991;52.430;10.586;2022-09-09T17:23:28;25.90;48.30
38183;DHT22;23991;52.430;10.586;2022-09-09T17:25:58;25.70;48.60
38183;DHT22;23991;52.430;10.586;2022-09-09T17:28:23;25.50;49.40
38183;DHT22;23991;52.430;10.586;2022-09-09T17:30:53;25.40;49.90
38183;DHT22;23991;52.430;10.586;2022-09-09T17:33:18;25.30;50.30